Time;durP1;ratioP1;P1;durP2;ratioP2;P2;SDS_P1;SDS_P2;PMS_P1;PMS_P2;Temp;Humidity;BMP_temperature;BMP_pressure;BME280_temperature;BME280_humidity;BME280_pressure;Samples;Min_cycle;Max_cycle;Signal;HPM_P1;HPM_P2
2021/03/21 00:00:15;;;;;;;;;;;;;;;17.23;50.15;101152.34;5111034;27;1319;-72
2021/03/21 00:02:41;;;;;;;;;;;;;;;17.22;50.19;101145.34;5130048;27;1354;-69
2021/03/21 00:05:08;;;;;;;;;;;;;;;17.22;50.10;101145.34;5127073;27;1279;-69
2021/03/21 00:07:34;;;;;;;;;;;;;;;17.21;49.92;101141.84;5129767;27;1322;-69
2021/03/21 00:10:03;;;;;;;;;;;;;;;17.21;50.00;101144.50;5102989;27;1212;-70
2021/03/21 00:12:29;;;;;;;;;;;;;;;17.36;52.07;101146.44;5122023;27;1369;-72
2021/03/21 00:14:56;;;;;;;;;;;;;;;17.31;50.93;101140.53;5110503;28;1033;-72
2021/03/21 00:17:22;;;;;;;;;;;;;;;17.29;50.75;101149.44;5092870;28;1977;-73
2021/03/21 00:19:49;;;;;;;;;;;;;;;17.27;50.05;101143.34;5111625;28;1044;-72
2021/03/21 00:22:15;;;;;;;;;;;;;;;17.26;50.09;101142.53;5111122;28;1204;-72
2021/03/21 00:24:41;;;;;;;;;;;;;;;17.25;50.14;101135.53;5110972;28;1072;-72
2021/03/21 00:27:08;;;;;;;;;;;;;;;17.27;49.95;101143.34;5111049;28;1298;-72
2021/03/21 00:29:34;;;;;;;;;;;;;;;17.25;49.80;101135.53;5111293;28;1054;-71
2021/03/21 00:32:00;;;;;;;;;;;;;;;17.24;50.00;101135.59;5111508;28;1220;-71
2021/03/21 00:34:27;;;;;;;;;;;;;;;17.23;50.13;101141.81;5111339;28;1085;-72
2021/03/21 00:36:53;;;;;;;;;;;;;;;17.19;50.27;101148.13;5110533;28;1227;-72
2021/03/21 00:39:19;;;;;;;;;;;;;;;17.17;50.25;101144.72;5110860;28;1941;-73
2021/03/21 00:41:46;;;;;;;;;;;;;;;17.15;50.41;101136.88;5110588;28;1231;-73
2021/03/21 00:44:12;;;;;;;;;;;;;;;17.14;50.50;101144.84;5110927;28;1069;-72
2021/03/21 00:46:39;;;;;;;;;;;;;;;17.12;50.73;101144.03;5110801;28;1247;-73
2021/03/21 00:49:05;;;;;;;;;;;;;;;17.08;50.67;101142.47;5110701;28;1146;-73
2021/03/21 00:51:31;;;;;;;;;;;;;;;17.07;51.19;101146.88;5110264;28;1234;-73
2021/03/21 00:53:59;;;;;;;;;;;;;;;17.06;51.06;101141.66;5075798;28;1067;-73
2021/03/21 00:56:31;;;;;;;;;;;;;;;17.05;51.29;101148.75;5092442;28;1309;-73
2021/03/21 00:58:58;;;;;;;;;;;;;;;17.04;51.60;101147.03;5110101;28;1982;-72
2021/03/21 01:01:25;;;;;;;;;;;;;;;17.02;51.53;101145.38;5110373;28;1339;-72
2021/03/21 01:03:52;;;;;;;;;;;;;;;17.00;51.55;101144.56;5110213;28;1076;-72
2021/03/21 01:06:18;;;;;;;;;;;;;;;16.97;51.50;101139.44;5109919;28;1220;-72
2021/03/21 01:08:44;;;;;;;;;;;;;;;16.96;51.55;101140.38;5110119;28;1055;-72
2021/03/21 01:11:14;;;;;;;;;;;;;;;16.95;51.64;101139.53;5110089;28;1231;-73
2021/03/21 01:13:41;;;;;;;;;;;;;;;16.93;51.83;101139.56;5091524;28;1576;-73
2021/03/21 01:16:10;;;;;;;;;;;;;;;16.92;51.72;101137.03;5110279;28;1216;-72
2021/03/21 01:18:36;;;;;;;;;;;;;;;16.91;52.06;101127.41;5091152;28;1983;-73
2021/03/21 01:21:03;;;;;;;;;;;;;;;16.89;51.76;101131.91;5109605;28;1232;-72
2021/03/21 01:23:29;;;;;;;;;;;;;;;16.87;52.11;101128.47;5109777;28;948;-73
2021/03/21 01:25:56;;;;;;;;;;;;;;;16.86;51.88;101132.03;5109672;28;1223;-73
2021/03/21 01:28:27;;;;;;;;;;;;;;;16.85;52.30;101133.78;5109835;28;1127;-73
2021/03/21 01:30:54;;;;;;;;;;;;;;;16.84;52.40;101133.88;5109969;28;1172;-73
2021/03/21 01:33:21;;;;;;;;;;;;;;;16.83;52.70;101122.50;5109516;28;920;-72
2021/03/21 01:35:49;;;;;;;;;;;;;;;16.81;52.63;101124.31;5109500;28;1303;-72
2021/03/21 01:38:18;;;;;;;;;;;;;;;16.80;52.61;101122.63;5109844;28;1905;-72
2021/03/21 01:40:45;;;;;;;;;;;;;;;16.79;52.68;101134.06;5109877;28;1201;-72
2021/03/21 01:43:13;;;;;;;;;;;;;;;16.77;52.79;101128.00;5109817;28;777;-72
2021/03/21 01:45:42;;;;;;;;;;;;;;;16.77;52.75;101128.00;5091337;28;1438;-72
2021/03/21 01:48:26;;;;;;;;;;;;;;;16.75;52.97;101124.56;5109396;28;789;-72
2021/03/21 01:50:59;;;;;;;;;;;;;;;16.74;52.95;101122.03;5109299;28;1390;-72
2021/03/21 01:53:27;;;;;;;;;;;;;;;16.73;53.17;101130.81;5109342;28;1184;-72
2021/03/21 01:55:54;;;;;;;;;;;;;;;16.71;52.91;101130.91;5109496;28;1287;-72
2021/03/21 01:58:21;;;;;;;;;;;;;;;16.68;53.02;101125.78;5090711;28;1976;-72
2021/03/21 02:00:47;;;;;;;;;;;;;;;16.68;53.43;101117.88;5109106;28;1315;-72
2021/03/21 02:03:14;;;;;;;;;;;;;;;16.67;53.12;101112.66;5090511;28;1171;-72
2021/03/21 02:05:41;;;;;;;;;;;;;;;16.65;53.25;101110.13;5108867;28;1230;-72
2021/03/21 02:08:19;;;;;;;;;;;;;;;16.65;53.33;101104.00;5108979;28;793;-72
2021/03/21 02:10:57;;;;;;;;;;;;;;;16.64;53.21;101111.03;5108622;28;1331;-72
2021/03/21 02:13:23;;;;;;;;;;;;;;;16.64;53.33;101105.78;5108725;28;1121;-72
2021/03/21 02:15:49;;;;;;;;;;;;;;;16.62;53.40;101105.00;5109050;28;1307;-72
2021/03/21 02:18:16;;;;;;;;;;;;;;;16.60;53.19;101104.19;5108702;28;1909;-72
2021/03/21 02:21:01;;;;;;;;;;;;;;;16.59;53.27;101102.50;5109166;28;1224;-71
2021/03/21 02:23:42;;;;;;;;;;;;;;;16.58;53.38;101092.88;5108560;28;1159;-72
2021/03/21 02:26:27;;;;;;;;;;;;;;;16.55;53.50;101093.00;5108745;28;1244;-72
2021/03/21 02:28:59;;;;;;;;;;;;;;;16.54;53.39;101091.28;5108708;28;975;-72
2021/03/21 02:31:58;;;;;;;;;;;;;;;16.54;53.33;101083.41;5109043;28;1240;-72
2021/03/21 02:34:27;;;;;;;;;;;;;;;16.53;53.27;101086.94;5074630;28;1102;-72
2021/03/21 02:36:59;;;;;;;;;;;;;;;16.53;53.34;101084.31;5090275;28;1328;-71
2021/03/21 02:39:32;;;;;;;;;;;;;;;16.53;53.40;101084.31;5108844;28;1909;-71
2021/03/21 02:42:03;;;;;;;;;;;;;;;16.51;53.66;101083.50;5108785;28;1370;-72
2021/03/21 02:44:31;;;;;;;;;;;;;;;16.50;53.64;101086.22;5108921;28;1062;-71
2021/03/21 02:47:00;;;;;;;;;;;;;;;16.50;53.79;101084.44;5090137;28;1274;-72
2021/03/21 02:49:55;;;;;;;;;;;;;;;16.50;53.78;101079.19;5108525;28;1366;-72
2021/03/21 02:52:37;;;;;;;;;;;;;;;16.47;53.78;101071.41;5081360;28;1253;-72
2021/03/21 02:55:07;;;;;;;;;;;;;;;16.48;53.85;101088.88;5108728;28;1127;-72
2021/03/21 02:57:41;;;;;;;;;;;;;;;16.47;53.78;101071.41;5108272;28;1909;-72
2021/03/21 03:00:08;;;;;;;;;;;;;;;16.46;53.82;101071.47;5090081;28;1247;-71
2021/03/21 03:02:47;;;;;;;;;;;;;;;16.46;53.66;101059.19;5108225;28;1228;-72
2021/03/21 03:05:20;;;;;;;;;;;;;;;16.46;53.92;101067.06;5108655;28;944;-71
2021/03/21 03:07:49;;;;;;;;;;;;;;;16.47;54.04;101063.53;5108253;28;1240;-71
2021/03/21 03:10:36;;;;;;;;;;;;;;;16.46;53.94;101058.31;5108500;28;919;-71
2021/03/21 03:13:06;;;;;;;;;;;;;;;16.45;54.05;101053.97;5107835;28;1051;-71
2021/03/21 03:15:33;;;;;;;;;;;;;;;16.42;53.87;101052.34;5089394;28;1452;-71
2021/03/21 03:18:10;;;;;;;;;;;;;;;16.39;53.98;101058.59;5108074;28;1933;-71
2021/03/21 03:20:42;;;;;;;;;;;;;;;16.39;53.96;101048.06;5107982;28;1352;-71
2021/03/21 03:23:22;;;;;;;;;;;;;;;16.39;53.93;101060.34;5089928;28;832;-71
2021/03/21 03:26:09;;;;;;;;;;;;;;;16.40;54.15;101065.56;5108094;28;1272;-71
2021/03/21 03:28:55;;;;;;;;;;;;;;;16.39;53.92;101058.59;5089601;28;1191;-72
2021/03/21 03:31:50;;;;;;;;;;;;;;;16.37;53.91;101046.44;5089683;28;1266;-72
2021/03/21 03:34:17;;;;;;;;;;;;;;;16.35;54.05;101053.53;5096775;28;1234;-72
2021/03/21 03:36:44;;;;;;;;;;;;;;;16.35;53.93;101064.06;5112483;28;1169;-72
2021/03/21 03:39:10;;;;;;;;;;;;;;;16.32;53.83;101057.13;5112146;28;1913;-72
2021/03/21 03:42:03;;;;;;;;;;;;;;;16.32;53.84;101064.19;5112039;28;1239;-72
2021/03/21 03:44:35;;;;;;;;;;;;;;;16.34;53.61;101059.69;5088277;28;1414;-72
2021/03/21 03:47:02;;;;;;;;;;;;;;;16.32;53.88;101061.53;5111455;28;1272;-71
2021/03/21 03:49:48;;;;;;;;;;;;;;;16.31;53.77;101068.56;5093134;28;1350;-72
2021/03/21 03:52:32;;;;;;;;;;;;;;;16.31;53.97;101071.19;5093193;28;1631;-71
2021/03/21 03:55:02;;;;;;;;;;;;;;;16.31;53.82;101075.59;5112167;28;1205;-72
2021/03/21 03:57:31;;;;;;;;;;;;;;;16.31;53.81;101076.47;5111737;28;1331;-72
2021/03/21 04:00:05;;;;;;;;;;;;;;;16.29;53.64;101073.03;5111779;28;1072;-72
2021/03/21 04:02:40;;;;;;;;;;;;;;;16.26;53.67;101069.69;5111820;28;1241;-72
2021/03/21 04:05:07;;;;;;;;;;;;;;;16.26;53.43;101067.88;5111641;28;1073;-72
2021/03/21 04:07:39;;;;;;;;;;;;;;;16.26;53.48;101077.56;5111221;28;1220;-72
2021/03/21 04:10:14;;;;;;;;;;;;;;;16.26;53.63;101078.41;5111827;28;1151;-71
2021/03/21 04:12:59;;;;;;;;;;;;;;;16.24;53.50;101076.75;5111223;28;1337;-71
2021/03/21 04:15:27;;;;;;;;;;;;;;;16.23;53.59;101075.91;5112056;28;1188;-71
2021/03/21 04:17:56;;;;;;;;;;;;;;;16.22;53.45;101082.09;5092893;28;1910;-72
2021/03/21 04:20:25;;;;;;;;;;;;;;;16.24;53.40;101090.78;5092227;28;1305;-72
2021/03/21 04:22:57;;;;;;;;;;;;;;;16.23;53.43;101088.22;5111404;28;1158;-72
2021/03/21 04:25:27;;;;;;;;;;;;;;;16.21;53.29;101084.78;5111740;28;1286;-72
2021/03/21 04:27:57;;;;;;;;;;;;;;;16.20;53.50;101085.72;5092664;28;1228;-71
2021/03/21 04:30:43;;;;;;;;;;;;;;;16.20;53.35;101088.34;5111512;28;1119;-72
2021/03/21 04:33:11;;;;;;;;;;;;;;;16.19;53.38;101086.63;5110799;28;1389;-72
2021/03/21 04:35:58;;;;;;;;;;;;;;;16.20;53.26;101090.97;5092726;28;1165;-71
2021/03/21 04:38:35;;;;;;;;;;;;;;;16.18;53.43;101090.16;5110601;28;1968;-71
2021/03/21 04:41:03;;;;;;;;;;;;;;;16.19;53.33;101095.38;5110654;28;1350;-71
2021/03/21 04:43:45;;;;;;;;;;;;;;;16.19;53.10;101098.00;5110679;28;1142;-71
2021/03/21 04:46:16;;;;;;;;;;;;;;;16.20;53.12;101098.84;5110185;28;1232;-72
2021/03/21 04:48:42;;;;;;;;;;;;;;;16.20;53.14;101101.47;5110472;28;1076;-72
2021/03/21 04:51:12;;;;;;;;;;;;;;;16.15;53.18;101109.53;5092275;28;1335;-71
2021/03/21 04:53:43;;;;;;;;;;;;;;;16.16;53.22;101102.50;5091751;28;1193;-72
2021/03/21 04:56:13;;;;;;;;;;;;;;;16.15;53.17;101095.53;5110570;28;1344;-71
2021/03/21 04:58:47;;;;;;;;;;;;;;;16.14;53.15;101093.84;5110811;28;1976;-71
2021/03/21 05:01:22;;;;;;;;;;;;;;;16.13;53.11;101092.13;5110219;28;1243;-71
2021/03/21 05:04:08;;;;;;;;;;;;;;;16.14;53.07;101096.47;5110561;28;913;-70
2021/03/21 05:06:44;;;;;;;;;;;;;;;16.11;53.24;101097.44;5110206;28;1167;-71
2021/03/21 05:09:17;;;;;;;;;;;;;;;16.12;53.24;101100.91;5110585;28;1023;-71
2021/03/21 05:11:50;;;;;;;;;;;;;;;16.14;53.25;101099.94;5110278;28;1352;-71
2021/03/21 05:14:23;;;;;;;;;;;;;;;16.09;53.39;101103.66;5107412;28;1324;-70
2021/03/21 05:16:56;;;;;;;;;;;;;;;16.08;53.41;101102.81;5092299;28;1320;-71
2021/03/21 05:19:54;;;;;;;;;;;;;;;16.10;53.20;101106.25;5108851;28;1918;-71
2021/03/21 05:22:33;;;;;;;;;;;;;;;16.09;53.09;101124.69;5076024;28;1252;-70
2021/03/21 05:25:08;;;;;;;;;;;;;;;16.09;53.09;101120.28;5091978;28;1155;-71
2021/03/21 05:27:41;;;;;;;;;;;;;;;16.08;53.28;101134.34;5110201;28;1397;-71
2021/03/21 05:30:14;;;;;;;;;;;;;;;16.06;53.36;101132.69;5110371;28;1053;-71
2021/03/21 05:32:40;;;;;;;;;;;;;;;16.05;53.14;101134.47;5109676;28;1316;-71
2021/03/21 05:35:10;;;;;;;;;;;;;;;16.06;53.41;101124.81;5110007;28;1152;-71
2021/03/21 05:37:55;;;;;;;;;;;;;;;16.03;53.26;101127.56;5074426;28;1231;-71
2021/03/21 05:40:40;;;;;;;;;;;;;;;16.03;53.11;101132.81;5109983;28;1242;-71
2021/03/21 05:43:19;;;;;;;;;;;;;;;16.03;53.13;101130.19;5091311;28;1376;-71
2021/03/21 05:45:45;;;;;;;;;;;;;;;16.04;53.09;101137.16;5110029;28;1236;-70
2021/03/21 05:48:11;;;;;;;;;;;;;;;16.00;53.18;101132.94;5091080;28;833;-71
2021/03/21 05:50:56;;;;;;;;;;;;;;;16.01;53.23;101139.91;5109495;28;1445;-71
2021/03/21 05:53:27;;;;;;;;;;;;;;;16.02;53.22;101144.28;5110093;28;968;-70
2021/03/21 05:55:56;;;;;;;;;;;;;;;16.00;53.01;101141.69;5109107;28;1224;-71
2021/03/21 05:58:41;;;;;;;;;;;;;;;16.00;53.04;101143.44;5109034;28;1979;-71
2021/03/21 06:01:39;;;;;;;;;;;;;;;16.01;53.13;101146.03;5109720;28;1383;-71
2021/03/21 06:04:30;;;;;;;;;;;;;;;16.01;52.99;101147.81;5109359;28;1111;-70
2021/03/21 06:07:14;;;;;;;;;;;;;;;15.98;53.04;101154.03;5109395;28;1206;-71
2021/03/21 06:09:59;;;;;;;;;;;;;;;15.97;53.13;101152.31;5109611;28;1093;-71
2021/03/21 06:12:44;;;;;;;;;;;;;;;15.95;53.10;101148.91;5109337;28;1231;-71
2021/03/21 06:15:14;;;;;;;;;;;;;;;15.98;53.03;101156.66;5108800;28;1049;-71
2021/03/21 06:18:02;;;;;;;;;;;;;;;15.99;53.06;101166.25;5109562;28;1246;-71
2021/03/21 06:20:51;;;;;;;;;;;;;;;15.99;52.89;101157.53;5091012;28;1257;-71
2021/03/21 06:23:36;;;;;;;;;;;;;;;15.93;53.03;101152.50;5109014;28;913;-71
2021/03/21 06:26:07;;;;;;;;;;;;;;;15.93;53.02;101161.22;5090310;28;1275;-71
2021/03/21 06:28:43;;;;;;;;;;;;;;;15.92;53.20;101158.66;5090303;28;1165;-71
2021/03/21 06:31:28;;;;;;;;;;;;;;;15.93;52.98;101163.84;5108987;28;1192;-71
2021/03/21 06:34:11;;;;;;;;;;;;;;;15.90;53.28;101171.03;5108733;28;1056;-71
2021/03/21 06:37:09;;;;;;;;;;;;;;;15.93;53.01;101166.47;5073862;28;1437;-72
2021/03/21 06:39:55;;;;;;;;;;;;;;;15.89;53.28;101161.41;5067500;28;1910;-71
2021/03/21 06:42:28;;;;;;;;;;;;;;;15.91;53.26;101165.69;5108848;28;1208;-70
2021/03/21 06:45:00;;;;;;;;;;;;;;;15.91;53.14;101170.09;5109295;28;1036;-70
2021/03/21 06:47:28;;;;;;;;;;;;;;;15.91;52.95;101170.09;5108992;28;1324;-70
2021/03/21 06:49:55;;;;;;;;;;;;;;;15.87;53.19;101163.25;5108542;28;1447;-70
2021/03/21 06:52:26;;;;;;;;;;;;;;;15.92;53.38;101166.56;5073493;28;1321;-72
2021/03/21 06:54:59;;;;;;;;;;;;;;;15.94;52.90;101162.94;5108989;28;1097;-72
2021/03/21 06:57:25;;;;;;;;;;;;;;;15.94;52.87;101157.69;5108404;28;1243;-75
2021/03/21 06:59:57;;;;;;;;;;;;;;;15.95;53.19;101169.06;5090455;28;1906;-75
2021/03/21 07:02:42;;;;;;;;;;;;;;;15.95;53.09;101171.69;5090713;28;1767;-75
2021/03/21 07:05:09;;;;;;;;;;;;;;;15.92;53.22;101167.41;5090682;28;1100;-73
2021/03/21 07:07:42;;;;;;;;;;;;;;;16.02;53.18;101166.13;5089087;28;1717;-72
2021/03/21 07:10:26;;;;;;;;;;;;;;;16.01;53.19;101167.06;5109540;28;1047;-73
2021/03/21 07:13:14;;;;;;;;;;;;;;;15.99;53.06;101160.97;5106633;28;1561;-72
2021/03/21 07:15:49;;;;;;;;;;;;;;;15.98;53.33;101159.28;5095740;28;1338;-72
2021/03/21 07:18:54;;;;;;;;;;;;;;;15.97;53.43;101161.97;5109930;28;1933;-71
2021/03/21 07:21:35;;;;;;;;;;;;;;;15.95;53.60;101156.78;5047115;28;1311;-70
2021/03/21 07:24:20;;;;;;;;;;;;;;;15.95;53.59;101174.31;5046593;28;1214;-74
2021/03/21 07:27:06;;;;;;;;;;;;;;;15.94;53.61;101176.09;5073319;28;1313;-73
2021/03/21 07:29:48;;;;;;;;;;;;;;;15.96;53.56;101173.41;5108171;28;1114;-73
2021/03/21 07:32:55;;;;;;;;;;;;;;;15.94;53.73;101169.97;5107596;28;1405;-72
2021/03/21 07:35:45;;;;;;;;;;;;;;;15.97;53.60;101164.59;5105947;28;1479;-74
2021/03/21 07:38:24;;;;;;;;;;;;;;;15.93;53.63;101168.28;5070811;28;1975;-72
2021/03/21 07:40:56;;;;;;;;;;;;;;;15.92;53.80;101161.31;5106859;28;1315;-72
2021/03/21 07:43:49;;;;;;;;;;;;;;;15.93;53.66;101153.34;5109347;28;1162;-69
2021/03/21 07:46:15;;;;;;;;;;;;;;;15.96;53.69;101155.03;5108405;28;1391;-74
2021/03/21 07:48:44;;;;;;;;;;;;;;;15.93;53.82;101153.34;5110404;28;1220;-73
2021/03/21 07:51:16;;;;;;;;;;;;;;;16.01;53.90;101150.44;5113081;28;1298;-75
2021/03/21 07:54:10;;;;;;;;;;;;;;;16.01;53.74;101150.44;5116984;28;1268;-75
2021/03/21 07:56:44;;;;;;;;;;;;;;;16.07;53.75;101144.94;5119448;28;1370;-77
2021/03/21 07:59:14;;;;;;;;;;;;;;;16.13;53.48;101148.19;5119814;28;1941;-78
2021/03/21 08:01:40;;;;;;;;;;;;;;;16.18;53.50;101142.72;5116729;27;1621;-76
2021/03/21 08:04:10;;;;;;;;;;;;;;;16.21;53.36;101155.75;5117375;28;1255;-76
2021/03/21 08:06:39;;;;;;;;;;;;;;;16.22;53.43;101147.81;5100159;28;1541;-74
2021/03/21 08:09:17;;;;;;;;;;;;;;;16.23;53.37;101148.69;5106249;28;1288;-76
2021/03/21 08:11:48;;;;;;;;;;;;;;;16.49;54.47;101144.97;5117486;27;1347;-73
2021/03/21 08:14:25;;;;;;;;;;;;;;;16.40;53.11;101148.84;5092627;28;1142;-72
2021/03/21 08:16:53;;;;;;;;;;;;;;;16.34;53.17;101146.47;5088825;28;1310;-73
2021/03/21 08:19:25;;;;;;;;;;;;;;;16.30;53.01;101147.50;5109186;28;2041;-71
2021/03/21 08:21:53;;;;;;;;;;;;;;;16.30;53.02;101143.09;5106885;28;1291;-69
2021/03/21 08:24:22;;;;;;;;;;;;;;;16.31;53.13;101138.69;5109590;28;1224;-72
2021/03/21 08:26:48;;;;;;;;;;;;;;;16.33;52.82;101142.09;5090561;28;1397;-73
2021/03/21 08:29:24;;;;;;;;;;;;;;;16.34;52.86;101141.19;5109258;28;1295;-69
2021/03/21 08:32:05;;;;;;;;;;;;;;;16.34;52.78;101142.06;5106634;28;1349;-70
2021/03/21 08:34:45;;;;;;;;;;;;;;;16.35;52.71;101140.28;5106839;28;1292;-74
2021/03/21 08:37:30;;;;;;;;;;;;;;;16.35;52.70;101135.03;5087794;28;1332;-70
2021/03/21 08:40:09;;;;;;;;;;;;;;;16.36;52.53;101134.09;5106703;28;1910;-72
2021/03/21 08:42:39;;;;;;;;;;;;;;;16.36;52.42;101123.56;5107407;28;1229;-72
2021/03/21 08:45:12;;;;;;;;;;;;;;;16.37;52.55;101130.56;5109478;28;1280;-73
2021/03/21 08:47:39;;;;;;;;;;;;;;;16.37;52.49;101131.41;5108332;28;1279;-71
2021/03/21 08:50:26;;;;;;;;;;;;;;;16.40;52.31;101133.91;5108208;28;1356;-75
2021/03/21 08:52:52;;;;;;;;;;;;;;;16.54;54.23;101133.38;5107783;28;1311;-76
2021/03/21 08:55:24;;;;;;;;;;;;;;;16.50;52.48;101126.50;5111484;28;1188;-73
2021/03/21 08:57:51;;;;;;;;;;;;;;;16.52;54.13;101126.44;5104861;28;1327;-72
2021/03/21 09:00:23;;;;;;;;;;;;;;;16.58;54.51;101127.06;5109942;28;1909;-70
2021/03/21 09:02:49;;;;;;;;;;;;;;;16.64;54.74;101126.81;5091714;28;1249;-70
2021/03/21 09:05:18;;;;;;;;;;;;;;;16.72;55.16;101123.84;5110313;28;1332;-72
2021/03/21 09:07:51;;;;;;;;;;;;;;;16.62;53.48;101133.06;5091769;28;1279;-71
2021/03/21 09:10:18;;;;;;;;;;;;;;;16.63;54.23;101124.22;5110175;28;1303;-68
2021/03/21 09:12:47;;;;;;;;;;;;;;;16.80;54.29;101117.34;5091235;28;1488;-67
2021/03/21 09:15:30;;;;;;;;;;;;;;;16.88;54.57;101115.25;5105360;28;1283;-69
2021/03/21 09:18:04;;;;;;;;;;;;;;;16.87;55.18;101113.53;5088893;28;1351;-70
2021/03/21 09:20:31;;;;;;;;;;;;;;;16.75;54.26;101111.41;5087934;28;1297;-69
2021/03/21 09:22:58;;;;;;;;;;;;;;;16.74;56.01;101119.41;5108697;28;1244;-69
2021/03/21 09:25:24;;;;;;;;;;;;;;;16.92;56.24;101110.72;5109538;28;1221;-69
2021/03/21 09:27:51;;;;;;;;;;;;;;;17.00;56.17;101107.72;5087671;28;1323;-72
2021/03/21 09:30:20;;;;;;;;;;;;;;;16.86;56.01;101101.31;5108342;28;1235;-70
2021/03/21 09:33:00;;;;;;;;;;;;;;;16.78;57.10;101103.41;5107408;28;1372;-72
2021/03/21 09:35:36;;;;;;;;;;;;;;;16.99;56.40;101104.25;5109695;28;1338;-69
2021/03/21 09:38:06;;;;;;;;;;;;;;;16.87;52.38;101103.00;5108831;28;1256;-71
2021/03/21 09:40:35;;;;;;;;;;;;;;;16.82;53.58;101101.50;5106718;28;1273;-71
2021/03/21 09:43:02;;;;;;;;;;;;;;;16.80;54.29;101101.56;5109243;28;1291;-71
2021/03/21 09:45:30;;;;;;;;;;;;;;;16.89;54.70;101105.56;5110215;28;1212;-72
2021/03/21 09:47:59;;;;;;;;;;;;;;;16.84;55.40;101091.78;5091575;28;1377;-73
2021/03/21 09:50:38;;;;;;;;;;;;;;;16.80;55.71;101090.19;5074571;28;1352;-74
2021/03/21 09:53:23;;;;;;;;;;;;;;;16.79;55.71;101097.22;5109880;28;1016;-75
2021/03/21 09:55:51;;;;;;;;;;;;;;;16.78;55.84;101089.38;5101901;28;1943;-75
2021/03/21 09:58:20;;;;;;;;;;;;;;;16.88;55.21;101086.28;5090189;28;1890;-77
2021/03/21 10:00:55;;;;;;;;;;;;;;;16.88;55.40;101083.66;5073025;28;1318;-74
2021/03/21 10:03:33;;;;;;;;;;;;;;;16.86;55.51;101085.53;5103008;28;1837;-73
2021/03/21 10:06:00;;;;;;;;;;;;;;;16.82;55.71;101083.06;5100167;28;1254;-69
2021/03/21 10:08:41;;;;;;;;;;;;;;;16.82;54.12;101083.06;5108168;28;1184;-70
2021/03/21 10:11:09;;;;;;;;;;;;;;;16.88;53.49;101081.03;5105935;28;1797;-71
2021/03/21 10:13:50;;;;;;;;;;;;;;;16.88;52.79;101073.13;5088041;28;1082;-74
2021/03/21 10:16:25;;;;;;;;;;;;;;;16.85;52.67;101070.66;5087680;28;1224;-74
2021/03/21 10:18:51;;;;;;;;;;;;;;;16.83;51.32;101071.63;5088140;28;1931;-73
2021/03/21 10:21:24;;;;;;;;;;;;;;;16.99;53.89;101072.69;5087420;28;1295;-74
2021/03/21 10:23:51;;;;;;;;;;;;;;;16.96;51.81;101069.31;5087636;28;921;-73
2021/03/21 10:26:43;;;;;;;;;;;;;;;16.84;53.54;101068.94;5087234;28;1185;-73
2021/03/21 10:29:09;;;;;;;;;;;;;;;16.75;53.63;101064.06;5063434;28;1587;-75
2021/03/21 10:31:37;;;;;;;;;;;;;;;16.71;52.26;101064.28;5068872;28;1367;-74
2021/03/21 10:34:04;;;;;;;;;;;;;;;16.69;52.07;101066.09;5053116;28;1135;-74
2021/03/21 10:39:08;;;;;;;;;;;;;;;16.66;52.10;101059.19;5089155;28;1913;-73
2021/03/21 10:41:54;;;;;;;;;;;;;;;16.65;51.62;101047.00;5089249;28;1244;-73
2021/03/21 10:44:21;;;;;;;;;;;;;;;16.65;51.86;101054.88;5089008;28;1167;-73
2021/03/21 10:46:51;;;;;;;;;;;;;;;16.64;52.20;101060.19;5089084;28;1224;-73
2021/03/21 10:49:37;;;;;;;;;;;;;;;16.62;52.51;101059.41;5070733;28;1229;-73
2021/03/21 10:52:07;;;;;;;;;;;;;;;16.60;52.50;101055.97;5089017;28;1299;-73
2021/03/21 10:54:33;;;;;;;;;;;;;;;16.59;52.84;101049.03;5089350;28;946;-73
2021/03/21 10:57:18;;;;;;;;;;;;;;;16.56;52.64;101050.03;5088936;28;1230;-74
2021/03/21 11:00:03;;;;;;;;;;;;;;;16.55;52.76;101048.31;5088691;28;1910;-72
2021/03/21 11:02:29;;;;;;;;;;;;;;;16.53;52.68;101050.13;5070949;28;1233;-72
2021/03/21 11:05:04;;;;;;;;;;;;;;;16.53;52.97;101044.88;5072008;28;1068;-72
2021/03/21 11:07:31;;;;;;;;;;;;;;;16.51;52.83;101041.41;5088617;28;1211;-72
2021/03/21 11:09:59;;;;;;;;;;;;;;;16.51;53.05;101041.41;5088815;28;1146;-73
2021/03/21 11:12:35;;;;;;;;;;;;;;;16.49;53.10;101045.91;5070567;28;1302;-72
2021/03/21 11:15:18;;;;;;;;;;;;;;;16.48;53.39;101045.94;5053617;28;1296;-73
2021/03/21 11:17:44;;;;;;;;;;;;;;;16.47;53.08;101039.00;5088351;28;1272;-72
2021/03/21 11:20:32;;;;;;;;;;;;;;;16.46;53.12;101032.88;5088554;28;1967;-72
2021/03/21 11:23:04;;;;;;;;;;;;;;;16.44;53.03;101033.88;5070361;28;774;-72
2021/03/21 11:25:33;;;;;;;;;;;;;;;16.44;53.18;101033.88;5088944;28;1180;-72
2021/03/21 11:27:59;;;;;;;;;;;;;;;16.43;53.43;101033.03;5088338;28;872;-71
2021/03/21 11:30:28;;;;;;;;;;;;;;;16.43;53.49;101033.03;5087941;28;1267;-72
2021/03/21 11:32:56;;;;;;;;;;;;;;;16.43;53.81;101033.03;5088418;28;1225;-72
2021/03/21 11:35:37;;;;;;;;;;;;;;;16.41;53.91;101030.44;5073394;28;1323;-72
2021/03/21 11:38:24;;;;;;;;;;;;;;;16.41;53.81;101030.44;5088108;28;786;-73
2021/03/21 11:40:54;;;;;;;;;;;;;;;16.41;53.89;101024.34;5069887;28;1489;-73
2021/03/21 11:43:20;;;;;;;;;;;;;;;16.39;53.91;101023.53;5070199;28;1264;-72
2021/03/21 11:45:51;;;;;;;;;;;;;;;16.37;54.07;101018.38;5069935;28;1229;-71
2021/03/21 11:48:20;;;;;;;;;;;;;;;16.36;54.00;101026.31;5069949;28;1590;-73
2021/03/21 11:50:47;;;;;;;;;;;;;;;16.35;54.24;101012.28;5088318;28;1467;-72
2021/03/21 11:53:16;;;;;;;;;;;;;;;16.37;54.10;101009.63;5069927;28;1277;-71
2021/03/21 11:55:43;;;;;;;;;;;;;;;16.35;54.41;101012.28;5090447;28;1308;-72
2021/03/21 11:58:24;;;;;;;;;;;;;;;16.34;54.25;101010.59;5073401;28;1518;-72
2021/03/21 12:00:56;;;;;;;;;;;;;;;16.35;54.24;101000.94;5091903;28;1200;-72
2021/03/21 12:03:23;;;;;;;;;;;;;;;16.34;54.33;100991.34;5073373;28;1566;-72
2021/03/21 12:06:21;;;;;;;;;;;;;;;16.46;54.44;100985.56;5081705;27;1987;-71
2021/03/21 12:08:52;;;;;;;;;;;;;;;16.61;53.93;100995.44;5101656;28;1036;-70
2021/03/21 12:11:25;;;;;;;;;;;;;;;16.63;53.86;100982.19;5086341;27;1868;-67
2021/03/21 12:14:17;;;;;;;;;;;;;;;16.58;53.51;100985.06;5102377;28;1497;-69
2021/03/21 12:17:22;;;;;;;;;;;;;;;16.56;53.27;100981.66;5130310;27;1634;-69
2021/03/21 12:20:18;;;;;;;;;;;;;;;16.57;53.63;100972.81;5116359;27;1902;-69
2021/03/21 12:22:49;;;;;;;;;;;;;;;16.57;53.76;100959.66;5095654;27;1325;-69
2021/03/21 12:25:25;;;;;;;;;;;;;;;16.59;54.74;100955.22;5130810;27;1153;-67
2021/03/21 12:28:03;;;;;;;;;;;;;;;16.63;50.23;100950.63;5118459;27;1703;-67
2021/03/21 12:30:31;;;;;;;;;;;;;;;16.64;51.43;100952.34;5098355;27;1294;-68
2021/03/21 12:33:11;;;;;;;;;;;;;;;16.63;52.25;100946.25;5130539;27;950;-68
2021/03/21 12:35:41;;;;;;;;;;;;;;;16.61;52.67;100937.56;5130330;27;1382;-68
2021/03/21 12:38:28;;;;;;;;;;;;;;;16.66;54.18;100946.09;5107466;28;947;-69
2021/03/21 12:41:18;;;;;;;;;;;;;;;16.79;54.56;100944.63;5120646;27;1271;-70
2021/03/21 12:43:45;;;;;;;;;;;;;;;16.75;53.83;100940.44;5129406;27;1689;-69
2021/03/21 12:46:15;;;;;;;;;;;;;;;16.75;55.30;100929.91;5122058;27;1263;-70
2021/03/21 12:48:47;;;;;;;;;;;;;;;16.76;54.55;100926.34;5128735;27;1038;-68
2021/03/21 12:51:25;;;;;;;;;;;;;;;16.78;54.89;100926.28;5128728;27;1292;-68
2021/03/21 12:53:52;;;;;;;;;;;;;;;16.74;54.44;100922.97;5094415;27;1160;-68
2021/03/21 12:56:19;;;;;;;;;;;;;;;16.77;55.01;100928.06;5110726;27;1295;-72
2021/03/21 12:58:46;;;;;;;;;;;;;;;16.85;55.37;100928.56;5092840;28;1977;-69
2021/03/21 13:01:13;;;;;;;;;;;;;;;16.79;54.89;100918.31;5120450;27;1691;-70
2021/03/21 13:03:40;;;;;;;;;;;;;;;16.85;55.97;100927.69;5111973;27;1691;-67
2021/03/21 13:06:08;;;;;;;;;;;;;;;16.78;55.72;100927.13;5102008;27;1845;-68
2021/03/21 13:08:35;;;;;;;;;;;;;;;16.73;54.41;100915.97;5086530;28;1483;-68
2021/03/21 13:11:03;;;;;;;;;;;;;;;16.71;54.50;100907.31;5073534;28;1532;-71
2021/03/21 13:13:30;;;;;;;;;;;;;;;16.79;55.96;100914.84;5109172;28;1839;-67
2021/03/21 13:15:57;;;;;;;;;;;;;;;16.75;55.20;100908.00;5108727;28;1275;-68
2021/03/21 13:18:24;;;;;;;;;;;;;;;16.77;56.62;100906.16;5106973;28;1518;-70
2021/03/21 13:20:53;;;;;;;;;;;;;;;16.77;56.39;100901.75;5108507;28;1975;-72
2021/03/21 13:23:21;;;;;;;;;;;;;;;16.77;56.21;100898.28;5078210;28;1775;-75